createdAt,value
2018-09-03T00:02:12.724Z,91.10
2018-09-03T00:04:42.905Z,91.60
2018-09-03T00:07:13.351Z,91.24
2018-09-03T00:09:43.709Z,90.98
2018-09-03T00:12:14.171Z,91.52
2018-09-03T00:14:44.330Z,91.21
2018-09-03T00:17:15.008Z,91.18
2018-09-03T00:19:45.403Z,90.98
2018-09-03T00:22:15.765Z,90.68
2018-09-03T00:24:45.721Z,90.69
2018-09-03T00:27:16.910Z,91.11
2018-09-03T00:29:47.711Z,91.25
2018-09-03T00:32:24.617Z,91.15
2018-09-03T00:34:59.533Z,90.65
2018-09-03T00:37:34.967Z,90.94
2018-09-03T00:40:10.599Z,91.39
2018-09-03T00:42:45.778Z,90.54
2018-09-03T00:45:22.431Z,90.33
2018-09-03T00:47:52.948Z,91.21
2018-09-03T00:50:23.889Z,91.08
2018-09-03T00:52:54.573Z,90.99
2018-09-03T00:55:24.709Z,90.56
2018-09-03T00:57:54.639Z,90.76
2018-09-03T01:00:25.459Z,90.98
2018-09-03T01:02:56.099Z,90.76
2018-09-03T01:05:28.545Z,90.63
2018-09-03T01:07:58.568Z,91.04
2018-09-03T01:10:29.985Z,90.37
2018-09-03T01:13:00.525Z,90.37
2018-09-03T01:15:33.544Z,90.98
2018-09-03T01:18:04.687Z,90.39
2018-09-03T01:20:36.393Z,90.88
2018-09-03T01:23:06.902Z,90.30
2018-09-03T01:25:37.538Z,90.71
2018-09-03T01:28:08.126Z,89.86
2018-09-03T01:30:38.685Z,90.67
2018-09-03T01:33:10.329Z,89.79
2018-09-03T01:35:40.593Z,90.55
2018-09-03T01:38:10.859Z,90.32
2018-09-03T01:40:41.346Z,90.05
2018-09-03T01:43:11.722Z,89.94
2018-09-03T01:45:42.012Z,90.38
2018-09-03T01:48:14.170Z,90.29
2018-09-03T01:50:44.292Z,90.69
2018-09-03T01:53:14.665Z,90.48
2018-09-03T01:55:44.839Z,90.34
2018-09-03T01:58:15.761Z,89.89
2018-09-03T02:00:47.790Z,89.71
2018-09-03T02:03:20.870Z,89.95
2018-09-03T02:05:51.421Z,89.87
2018-09-03T02:08:27.846Z,90.49
2018-09-03T02:10:58.493Z,90.64
2018-09-03T02:13:29.364Z,89.64
2018-09-03T02:15:59.789Z,89.63
2018-09-03T02:18:30.459Z,90.41
2018-09-03T02:21:02.355Z,90.15
2018-09-03T02:23:32.707Z,90.23
2018-09-03T02:26:03.987Z,89.99
2018-09-03T02:28:35.890Z,90.36
2018-09-03T02:31:06.052Z,90.30
2018-09-03T02:33:35.926Z,89.94
2018-09-03T02:36:06.457Z,90.41
2018-09-03T02:38:36.697Z,90.00
2018-09-03T02:41:07.746Z,89.66
2018-09-03T02:43:38.330Z,90.59
2018-09-03T02:46:09.432Z,89.90
2018-09-03T02:48:41.181Z,89.17
2018-09-03T02:51:13.461Z,89.41
2018-09-03T02:53:43.632Z,89.38
2018-09-03T02:56:14.979Z,89.69
2018-09-03T02:58:44.936Z,90.08
2018-09-03T03:01:14.942Z,89.85
2018-09-03T03:03:45.506Z,89.96
2018-09-03T03:06:15.666Z,89.27
2018-09-03T03:08:45.959Z,89.62
2018-09-03T03:11:16.332Z,89.75
2018-09-03T03:13:46.457Z,89.94
2018-09-03T03:16:16.722Z,89.37
2018-09-03T03:18:47.330Z,89.49
2018-09-03T03:21:17.740Z,89.33
2018-09-03T03:23:47.723Z,88.96
2018-09-03T03:26:18.098Z,89.14
2018-09-03T03:28:47.957Z,89.73
2018-09-03T03:31:18.638Z,89.69
2018-09-03T03:33:49.002Z,88.56
2018-09-03T03:36:20.266Z,88.92
2018-09-03T03:38:50.240Z,89.70
2018-09-03T03:41:20.738Z,88.80
2018-09-03T03:43:51.475Z,89.58
2018-09-03T03:46:21.814Z,88.96
2018-09-03T03:48:52.297Z,88.80
2018-09-03T03:51:22.255Z,88.63
2018-09-03T03:53:52.700Z,88.70
2018-09-03T03:56:23.854Z,88.71
2018-09-03T03:58:55.654Z,88.47
2018-09-03T04:01:25.781Z,88.91
2018-09-03T04:03:56.295Z,88.37
2018-09-03T04:06:27.093Z,88.48
2018-09-03T04:08:57.340Z,88.59
2018-09-03T04:11:29.287Z,88.38
2018-09-03T04:14:00.039Z,88.96
2018-09-03T04:16:31.410Z,88.68
2018-09-03T04:19:04.440Z,88.15
2018-09-03T04:21:34.560Z,88.23
2018-09-03T04:24:05.190Z,88.25
2018-09-03T04:26:36.540Z,88.35
2018-09-03T04:29:07.323Z,88.78
2018-09-03T04:31:38.753Z,88.53
2018-09-03T04:34:09.512Z,88.15
2018-09-03T04:36:40.396Z,88.82
2018-09-03T04:39:11.435Z,88.62
2018-09-03T04:41:41.681Z,89.01
2018-09-03T04:44:12.057Z,88.24
2018-09-03T04:46:41.832Z,88.13
2018-09-03T04:49:13.327Z,88.09
2018-09-03T04:51:43.471Z,88.06
2018-09-03T04:54:13.777Z,88.63
2018-09-03T04:56:44.782Z,88.79
2018-09-03T04:59:15.366Z,88.07
2018-09-03T05:01:45.595Z,88.18
2018-09-03T05:04:15.920Z,87.84
2018-09-03T05:06:46.384Z,87.76
2018-09-03T05:09:16.162Z,88.43
2018-09-03T05:11:46.278Z,87.70
2018-09-03T05:14:16.603Z,87.58
2018-09-03T05:16:46.401Z,87.59
2018-09-03T05:19:16.143Z,87.53
2018-09-03T05:21:46.116Z,87.67
2018-09-03T05:24:16.140Z,88.02
2018-09-03T05:26:46.737Z,88.02
2018-09-03T05:29:17.626Z,87.60
2018-09-03T05:31:47.913Z,87.59
2018-09-03T05:34:18.255Z,88.33
2018-09-03T05:36:49.206Z,87.87
2018-09-03T05:39:19.308Z,88.07
2018-09-03T05:41:49.411Z,87.11
2018-09-03T05:44:20.435Z,87.70
2018-09-03T05:46:50.516Z,87.41
2018-09-03T05:49:20.502Z,87.59
2018-09-03T05:51:51.082Z,87.38
2018-09-03T05:54:21.286Z,86.98
2018-09-03T05:56:51.467Z,87.44
2018-09-03T05:59:22.120Z,86.96
2018-09-03T06:01:52.157Z,86.48
2018-09-03T06:04:22.172Z,86.87
2018-09-03T06:06:52.429Z,87.02
2018-09-03T06:09:22.318Z,86.81
2018-09-03T06:11:52.079Z,85.79
2018-09-03T06:14:22.979Z,85.76
2018-09-03T06:16:52.981Z,85.15
2018-09-03T06:19:23.070Z,85.14
2018-09-03T06:21:53.377Z,84.53
2018-09-03T06:24:23.577Z,85.56
2018-09-03T06:26:54.296Z,85.32
2018-09-03T06:29:25.379Z,85.10
2018-09-03T06:31:55.577Z,84.26
2018-09-03T06:34:27.437Z,82.63
2018-09-03T06:36:57.618Z,82.96
2018-09-03T06:39:27.798Z,81.86
2018-09-03T06:41:57.963Z,81.81
2018-09-03T06:44:28.368Z,81.71
2018-09-03T06:46:58.565Z,81.58
2018-09-03T06:49:28.763Z,80.74
2018-09-03T06:52:00.039Z,81.31
2018-09-03T06:54:30.924Z,81.87
2018-09-03T06:57:01.342Z,80.96
2018-09-03T06:59:31.504Z,80.78
2018-09-03T07:02:01.296Z,80.64
2018-09-03T07:04:32.420Z,80.92
2018-09-03T07:07:03.147Z,81.85
2018-09-03T07:09:33.678Z,81.50
2018-09-03T07:12:03.837Z,82.24
2018-09-03T07:14:34.131Z,82.37
2018-09-03T07:17:04.513Z,82.38
2018-09-03T07:19:34.635Z,81.80
2018-09-03T07:22:05.793Z,82.29
2018-09-03T07:24:35.712Z,83.19
2018-09-03T07:27:05.939Z,82.84
2018-09-03T07:29:36.195Z,82.90
2018-09-03T07:32:06.695Z,83.56
2018-09-03T07:34:36.977Z,83.40
2018-09-03T07:37:07.305Z,84.64
2018-09-03T07:39:37.590Z,84.52
2018-09-03T07:42:08.087Z,85.06
2018-09-03T07:44:38.706Z,85.63
2018-09-03T07:47:08.566Z,86.99
2018-09-03T07:49:39.113Z,86.81
2018-09-03T07:52:09.221Z,87.25
2018-09-03T07:54:39.463Z,87.78
2018-09-03T07:57:09.217Z,87.25
2018-09-03T07:59:39.340Z,88.29
2018-09-03T08:02:09.379Z,88.62
2018-09-03T08:04:39.736Z,89.19
2018-09-03T08:07:09.849Z,88.84
2018-09-03T08:09:40.303Z,89.04
2018-09-03T08:12:10.131Z,89.06
2018-09-03T08:14:40.874Z,89.34
2018-09-03T08:17:10.658Z,88.79
2018-09-03T08:19:40.510Z,88.75
2018-09-03T08:22:10.539Z,88.47
2018-09-03T08:25:11.274Z,88.35
2018-09-03T08:27:41.171Z,88.41
2018-09-03T08:30:11.549Z,88.56
2018-09-03T08:32:41.346Z,88.15
2018-09-03T08:35:11.250Z,87.37
2018-09-03T08:37:42.082Z,87.05
2018-09-03T08:40:12.584Z,86.55
2018-09-03T08:42:42.867Z,84.85
2018-09-03T08:45:13.801Z,85.21
2018-09-03T08:47:44.179Z,83.76
2018-09-03T08:50:14.342Z,81.82
2018-09-03T08:52:44.482Z,81.05
2018-09-03T08:55:14.308Z,81.01
2018-09-03T08:57:44.668Z,81.51
2018-09-03T09:00:15.339Z,81.29
2018-09-03T09:02:45.093Z,80.83
2018-09-03T09:05:15.125Z,80.88
2018-09-03T09:07:45.175Z,81.44
2018-09-03T09:10:15.254Z,80.97
2018-09-03T09:12:45.198Z,81.07
2018-09-03T09:15:15.733Z,81.35
2018-09-03T09:17:45.743Z,82.14
2018-09-03T09:20:16.368Z,82.00
2018-09-03T09:22:47.046Z,81.88
2018-09-03T09:25:17.020Z,81.58
2018-09-03T09:27:47.387Z,81.48
2018-09-03T09:30:17.811Z,81.73
2018-09-03T09:32:47.708Z,81.85
2018-09-03T09:35:17.700Z,82.14
2018-09-03T09:37:48.304Z,82.21
2018-09-03T09:40:18.127Z,82.42
2018-09-03T09:42:48.325Z,82.82
2018-09-03T09:45:18.685Z,82.96
2018-09-03T09:47:48.612Z,82.16
2018-09-03T09:50:18.516Z,81.84
2018-09-03T09:52:48.730Z,81.95
2018-09-03T09:55:19.199Z,82.55
2018-09-03T09:57:49.053Z,81.66
2018-09-03T10:00:25.151Z,81.84
2018-09-03T10:02:55.207Z,81.71
2018-09-03T10:05:25.488Z,82.48
2018-09-03T10:07:55.447Z,82.13
2018-09-03T10:10:26.010Z,81.54
2018-09-03T10:12:55.849Z,81.92
2018-09-03T10:15:25.940Z,81.78
2018-09-03T10:17:56.182Z,82.07
2018-09-03T10:20:26.076Z,81.64
2018-09-03T10:22:55.985Z,82.26
2018-09-03T10:25:26.571Z,81.64
2018-09-03T10:27:56.349Z,82.33
2018-09-03T10:30:26.669Z,81.41
2018-09-03T10:32:56.532Z,81.74
2018-09-03T10:35:26.334Z,82.33
2018-09-03T10:37:57.683Z,81.75
2018-09-03T10:40:27.656Z,81.80
2018-09-03T10:42:58.065Z,81.87
2018-09-03T10:45:27.804Z,82.12
2018-09-03T10:47:57.611Z,82.36
2018-09-03T10:50:27.894Z,81.80
2018-09-03T10:52:58.859Z,81.63
2018-09-03T10:55:28.910Z,81.36
2018-09-03T10:57:58.762Z,81.49
2018-09-03T11:00:28.693Z,81.41
2018-09-03T11:02:58.694Z,81.09
2018-09-03T11:05:28.723Z,80.79
2018-09-03T11:07:58.704Z,80.69
2018-09-03T11:10:29.705Z,80.15
2018-09-03T11:12:59.896Z,80.61
2018-09-03T11:15:30.119Z,79.85
2018-09-03T11:18:01.008Z,80.73
2018-09-03T11:20:32.052Z,80.69
2018-09-03T11:23:02.905Z,80.45
2018-09-03T11:25:33.986Z,79.90
2018-09-03T11:28:04.179Z,79.40
2018-09-03T11:30:34.300Z,80.31
2018-09-03T11:33:06.475Z,79.56
2018-09-03T11:35:37.157Z,79.34
2018-09-03T11:38:07.294Z,79.62
2018-09-03T11:40:37.835Z,79.28
2018-09-03T11:43:08.171Z,79.42
2018-09-03T11:45:38.190Z,78.99
2018-09-03T11:48:08.648Z,78.85
2018-09-03T11:50:40.183Z,78.34
2018-09-03T11:53:10.681Z,77.98
2018-09-03T11:55:41.946Z,77.75
2018-09-03T11:58:12.136Z,76.85
2018-09-03T12:00:43.967Z,75.82
2018-09-03T12:03:16.643Z,74.44
2018-09-03T12:05:47.866Z,74.41
2018-09-03T12:08:18.061Z,75.63
2018-09-03T12:10:48.310Z,74.96
2018-09-03T12:13:18.626Z,75.53
2018-09-03T12:15:55.131Z,75.80
2018-09-03T12:18:25.047Z,76.45
2018-09-03T12:20:54.987Z,76.27
2018-09-03T12:23:25.170Z,76.03
2018-09-03T12:25:55.956Z,75.88
2018-09-03T12:28:26.394Z,75.89
2018-09-03T12:30:57.913Z,75.56
2018-09-03T12:33:28.426Z,75.35
2018-09-03T12:36:01.194Z,75.90
2018-09-03T12:38:31.467Z,75.84
2018-09-03T12:41:02.130Z,75.17
2018-09-03T12:43:32.248Z,75.34
2018-09-03T12:46:04.819Z,75.80
2018-09-03T12:48:37.074Z,76.15
2018-09-03T12:51:07.363Z,76.70
2018-09-03T12:53:37.505Z,76.82
2018-09-03T12:56:08.721Z,76.08
2018-09-03T12:58:39.381Z,75.39
2018-09-03T13:01:09.783Z,75.34
2018-09-03T13:03:40.053Z,75.93
2018-09-03T13:06:11.989Z,74.69
2018-09-03T13:08:43.661Z,74.97
2018-09-03T13:11:19.828Z,75.25
2018-09-03T13:13:51.993Z,73.67
2018-09-03T13:16:22.534Z,74.21
2018-09-03T13:18:52.680Z,74.08
2018-09-03T13:21:24.828Z,73.31
2018-09-03T13:23:56.615Z,73.20
2018-09-03T13:26:28.825Z,72.73
2018-09-03T13:28:58.732Z,72.38
2018-09-03T13:31:28.959Z,72.53
2018-09-03T13:33:58.972Z,73.20
2018-09-03T13:36:31.511Z,72.73
2018-09-03T13:39:01.235Z,73.56
2018-09-03T13:41:31.749Z,74.57
2018-09-03T13:44:02.058Z,74.43
2018-09-03T13:46:33.275Z,75.11
2018-09-03T13:49:04.407Z,75.13
2018-09-03T13:51:35.550Z,75.99
2018-09-03T13:54:06.471Z,76.48
2018-09-03T13:56:36.865Z,76.36
2018-09-03T13:59:07.094Z,76.29
2018-09-03T14:01:36.941Z,76.51
2018-09-03T14:04:07.040Z,75.91
2018-09-03T14:06:36.935Z,76.64
2018-09-03T14:09:09.375Z,75.56
2018-09-03T14:11:40.243Z,75.56
2018-09-03T14:14:10.392Z,75.31
2018-09-03T14:16:41.097Z,73.74
2018-09-03T14:19:11.074Z,72.71
2018-09-03T14:21:41.150Z,72.70
2018-09-03T14:24:13.917Z,72.41
2018-09-03T14:26:45.176Z,72.24
2018-09-03T14:29:16.066Z,72.41
2018-09-03T14:31:47.401Z,71.96
2018-09-03T14:34:17.957Z,70.48
2018-09-03T14:36:48.431Z,69.62
2018-09-03T14:39:27.785Z,70.14
2018-09-03T14:41:58.810Z,70.18
2018-09-03T14:44:28.941Z,71.42
2018-09-03T14:47:00.667Z,71.80
2018-09-03T14:49:32.551Z,71.25
2018-09-03T14:52:02.720Z,71.69
2018-09-03T14:54:33.072Z,71.58
2018-09-03T14:57:03.857Z,72.00
2018-09-03T14:59:34.674Z,72.88
2018-09-03T15:02:05.125Z,73.13
2018-09-03T15:04:37.353Z,72.19
2018-09-03T15:07:09.336Z,72.06
2018-09-03T15:09:42.359Z,72.51
2018-09-03T15:12:18.684Z,72.75
2018-09-03T15:14:54.592Z,73.11
2018-09-03T15:17:33.716Z,72.48
2018-09-03T15:20:09.708Z,72.10
2018-09-03T15:22:42.703Z,71.95
2018-09-03T15:25:13.772Z,72.21
2018-09-03T15:27:44.838Z,71.55
2018-09-03T15:30:26.712Z,72.14
2018-09-03T15:32:57.214Z,71.21
2018-09-03T15:35:28.077Z,70.33
2018-09-03T15:37:59.382Z,70.55
2018-09-03T15:40:31.607Z,70.10
2018-09-03T15:43:04.998Z,70.54
2018-09-03T15:45:35.401Z,69.77
2018-09-03T15:48:06.781Z,69.46
2018-09-03T15:50:37.237Z,69.37
2018-09-03T15:53:10.489Z,69.21
2018-09-03T15:55:40.709Z,69.24
2018-09-03T15:58:14.094Z,68.24
2018-09-03T16:00:44.289Z,68.95
2018-09-03T16:03:14.856Z,68.70
2018-09-03T16:05:44.846Z,69.09
2018-09-03T16:08:19.543Z,69.17
2018-09-03T16:10:50.252Z,69.50
2018-09-03T16:13:21.113Z,69.69
2018-09-03T16:15:52.747Z,69.99
2018-09-03T16:18:24.531Z,70.18
2018-09-03T16:20:55.399Z,70.18
2018-09-03T16:23:25.906Z,71.48
2018-09-03T16:25:56.670Z,71.88
2018-09-03T16:28:28.521Z,73.20
2018-09-03T16:30:59.032Z,73.81
2018-09-03T16:33:29.672Z,73.30
2018-09-03T16:36:03.092Z,73.30
2018-09-03T16:38:36.886Z,73.94
2018-09-03T16:41:07.601Z,74.14
2018-09-03T16:43:40.426Z,74.93
2018-09-03T16:46:10.261Z,75.68
2018-09-03T16:48:40.585Z,75.91
2018-09-03T16:51:17.066Z,75.61
2018-09-03T16:53:47.881Z,75.93
2018-09-03T16:56:19.897Z,75.82
2018-09-03T16:58:54.389Z,75.14
2018-09-03T17:01:26.711Z,75.12
2018-09-03T17:03:56.895Z,74.74
2018-09-03T17:06:26.808Z,74.47
2018-09-03T17:08:57.272Z,73.74
2018-09-03T17:11:28.186Z,74.39
2018-09-03T17:13:58.495Z,75.17
2018-09-03T17:16:32.873Z,76.32
2018-09-03T17:19:05.267Z,76.58
2018-09-03T17:21:35.254Z,75.70
2018-09-03T17:24:07.479Z,76.15
2018-09-03T17:26:38.512Z,74.54
2018-09-03T17:29:09.129Z,75.07
2018-09-03T17:31:40.130Z,75.44
2018-09-03T17:34:11.374Z,75.94
2018-09-03T17:36:41.897Z,76.24
2018-09-03T17:39:13.210Z,76.10
2018-09-03T17:41:43.550Z,76.50
2018-09-03T17:44:15.098Z,76.54
2018-09-03T17:46:45.403Z,76.00
2018-09-03T17:49:15.821Z,76.48
2018-09-03T17:51:46.219Z,77.42
2018-09-03T17:54:17.831Z,78.68
2018-09-03T17:56:48.785Z,78.83
2018-09-03T17:59:22.812Z,78.25
2018-09-03T18:01:53.498Z,78.43
2018-09-03T18:04:24.395Z,78.48
2018-09-03T18:06:57.725Z,79.75
2018-09-03T18:09:28.057Z,80.01
2018-09-03T18:11:57.954Z,80.69
2018-09-03T18:14:27.829Z,80.68
2018-09-03T18:16:58.258Z,80.96
2018-09-03T18:19:28.138Z,80.74
2018-09-03T18:22:00.102Z,80.88
2018-09-03T18:24:31.157Z,81.05
2018-09-03T18:27:00.959Z,81.02
2018-09-03T18:29:32.247Z,81.16
2018-09-03T18:32:02.939Z,81.35
2018-09-03T18:34:32.777Z,81.07
2018-09-03T18:37:02.794Z,81.11
2018-09-03T18:39:34.271Z,81.21
2018-09-03T18:42:05.788Z,80.95
2018-09-03T18:44:36.926Z,81.42
2018-09-03T18:47:07.682Z,81.37
2018-09-03T18:49:37.620Z,81.47
2018-09-03T18:52:07.735Z,81.91
2018-09-03T18:54:37.695Z,81.57
2018-09-03T18:57:07.893Z,82.24
2018-09-03T18:59:38.436Z,81.85
2018-09-03T19:02:09.576Z,81.74
2018-09-03T19:04:40.140Z,81.73
2018-09-03T19:07:10.389Z,82.27
2018-09-03T19:09:40.876Z,82.37
2018-09-03T19:12:10.824Z,82.40
2018-09-03T19:14:40.634Z,82.76
2018-09-03T19:17:12.501Z,82.79
2018-09-03T19:19:43.238Z,82.43
2018-09-03T19:22:14.143Z,82.21
2018-09-03T19:24:58.055Z,82.64
2018-09-03T19:27:29.603Z,82.37
2018-09-03T19:29:59.795Z,82.52
2018-09-03T19:32:39.448Z,82.96
2018-09-03T19:35:09.530Z,83.44
2018-09-03T19:37:40.365Z,83.49
2018-09-03T19:40:10.398Z,83.28
2018-09-03T19:42:40.915Z,84.00
2018-09-03T19:45:11.751Z,84.07
2018-09-03T19:47:43.055Z,83.94
2018-09-03T19:50:13.641Z,83.79
2018-09-03T19:52:43.949Z,83.83
2018-09-03T19:55:16.010Z,83.81
2018-09-03T19:57:46.765Z,84.35
2018-09-03T20:00:17.497Z,84.19
2018-09-03T20:02:50.815Z,84.82
2018-09-03T20:05:21.303Z,84.35
2018-09-03T20:07:53.494Z,84.64
2018-09-03T20:10:23.907Z,84.86
2018-09-03T20:12:56.152Z,84.36
2018-09-03T20:15:28.300Z,84.86
2018-09-03T20:17:58.878Z,84.10
2018-09-03T20:20:29.650Z,84.09
2018-09-03T20:23:00.734Z,84.39
2018-09-03T20:25:31.769Z,85.00
2018-09-03T20:28:02.469Z,84.48
2018-09-03T20:30:34.880Z,84.48
2018-09-03T20:33:05.576Z,84.62
2018-09-03T20:35:36.362Z,85.54
2018-09-03T20:38:07.201Z,84.73
2018-09-03T20:40:38.705Z,84.95
2018-09-03T20:43:09.006Z,84.78
2018-09-03T20:45:39.032Z,85.29
2018-09-03T20:48:11.900Z,85.79
2018-09-03T20:50:42.198Z,86.31
2018-09-03T20:53:13.514Z,87.10
2018-09-03T20:55:43.611Z,87.26
2018-09-03T20:58:15.344Z,86.41
2018-09-03T21:00:45.683Z,87.12
2018-09-03T21:03:16.299Z,85.96
2018-09-03T21:05:47.165Z,86.24
2018-09-03T21:08:18.958Z,86.83
2018-09-03T21:10:48.913Z,85.93
2018-09-03T21:13:19.219Z,86.36
2018-09-03T21:15:49.426Z,86.70
2018-09-03T21:18:20.175Z,87.42
2018-09-03T21:20:52.094Z,87.08
2018-09-03T21:23:23.403Z,86.71
2018-09-03T21:25:54.189Z,86.30
2018-09-03T21:28:24.386Z,86.40
2018-09-03T21:30:55.104Z,87.24
2018-09-03T21:33:26.744Z,86.26
2018-09-03T21:35:57.178Z,86.30
2018-09-03T21:38:29.889Z,87.14
2018-09-03T21:41:00.151Z,87.38
2018-09-03T21:43:31.605Z,87.02
2018-09-03T21:46:03.276Z,87.73
2018-09-03T21:48:33.920Z,87.55
2018-09-03T21:51:05.319Z,87.25
2018-09-03T21:53:35.981Z,87.13
2018-09-03T21:56:07.789Z,86.72
2018-09-03T21:58:39.329Z,87.24
2018-09-03T22:01:10.340Z,86.38
2018-09-03T22:03:42.835Z,86.94
2018-09-03T22:06:14.818Z,86.12
2018-09-03T22:08:46.151Z,86.21
2018-09-03T22:11:28.262Z,86.46
2018-09-03T22:14:00.040Z,86.09
2018-09-03T22:16:30.998Z,86.40
2018-09-03T22:19:03.507Z,85.90
2018-09-03T22:21:35.949Z,85.84
2018-09-03T22:24:06.919Z,86.31
2018-09-03T22:26:38.595Z,86.22
2018-09-03T22:29:09.506Z,85.76
2018-09-03T22:31:40.541Z,86.21
2018-09-03T22:34:12.855Z,86.64
2018-09-03T22:36:47.075Z,85.91
2018-09-03T22:39:19.012Z,85.91
2018-09-03T22:41:49.427Z,86.33
2018-09-03T22:44:20.535Z,85.98
2018-09-03T22:46:50.805Z,87.28
2018-09-03T22:49:22.409Z,86.87
2018-09-03T22:51:53.997Z,86.64
2018-09-03T22:54:25.674Z,87.30
2018-09-03T22:56:57.071Z,86.88
2018-09-03T22:59:28.650Z,86.90
2018-09-03T23:02:00.443Z,87.12
2018-09-03T23:04:31.539Z,87.50
2018-09-03T23:07:02.500Z,87.06
2018-09-03T23:09:34.188Z,86.71
2018-09-03T23:12:05.011Z,87.40
2018-09-03T23:14:35.680Z,87.00
2018-09-03T23:17:07.001Z,86.72
2018-09-03T23:19:39.130Z,87.38
2018-09-03T23:22:10.189Z,86.92
2018-09-03T23:24:42.550Z,87.48
2018-09-03T23:27:13.721Z,86.92
2018-09-03T23:29:45.354Z,86.95
2018-09-03T23:32:20.693Z,87.01
2018-09-03T23:34:53.341Z,87.56
2018-09-03T23:37:23.970Z,88.27
2018-09-03T23:39:56.270Z,88.39
2018-09-03T23:42:27.724Z,89.24
2018-09-03T23:44:58.902Z,89.38
2018-09-03T23:47:28.836Z,89.79
2018-09-03T23:49:59.128Z,89.82
2018-09-03T23:52:30.773Z,89.25
2018-09-03T23:55:00.662Z,89.43
2018-09-03T23:57:30.648Z,88.91
